<?xml version="1.0" encoding="UTF-8" standalone="no" ?>
<gpx xmlns="http://www.topografix.com/GPX/1/1" xmlns:xsi="http://www.w3.org/2001/XMLSchema-instance" xsi:schemaLocation="http://www.topografix.com/GPX/1/1 http://www.topografix.com/GPX/1/1/gpx.xsd" version="1.1" creator="VisuGPX - https://www.visugpx.com">
  <metadata>
    <name>luzech 6 descentes</name>
    <desc><![CDATA[parcours typé enduro avec de belles descentes]]></desc>
  </metadata>
  <trk>
    <name><![CDATA[2014-04-01-08-18-57]]></name>
    <trkseg>
      <trkpt lat="44.46082" lon="1.2755">
        <ele>245.766</ele>
        <time>2014-04-01T08:36:58Z</time>
      </trkpt>
      <trkpt lat="44.46091" lon="1.27558">
        <ele>245.986</ele>
        <time>2014-04-01T08:37:03Z</time>
      </trkpt>
      <trkpt lat="44.46095" lon="1.27558">
        <ele>246.287</ele>
        <time>2014-04-01T08:37:06Z</time>
      </trkpt>
      <trkpt lat="44.46106" lon="1.27564">
        <ele>246.816</ele>
        <time>2014-04-01T08:37:12Z</time>
      </trkpt>
      <trkpt lat="44.46123" lon="1.27568">
        <ele>246.967</ele>
        <time>2014-04-01T08:37:20Z</time>
      </trkpt>
      <trkpt lat="44.46142" lon="1.27572">
        <ele>247.617</ele>
        <time>2014-04-01T08:37:28Z</time>
      </trkpt>
      <trkpt lat="44.46157" lon="1.2758">
        <ele>249.107</ele>
        <time>2014-04-01T08:37:36Z</time>
      </trkpt>
      <trkpt lat="44.46172" lon="1.27597">
        <ele>253.028</ele>
        <time>2014-04-01T08:37:45Z</time>
      </trkpt>
      <trkpt lat="44.46186" lon="1.27606">
        <ele>255.663</ele>
        <time>2014-04-01T08:37:52Z</time>
      </trkpt>
      <trkpt lat="44.46199" lon="1.27613">
        <ele>258.198</ele>
        <time>2014-04-01T08:37:59Z</time>
      </trkpt>
      <trkpt lat="44.46211" lon="1.27624">
        <ele>260.348</ele>
        <time>2014-04-01T08:38:06Z</time>
      </trkpt>
      <trkpt lat="44.46224" lon="1.27642">
        <ele>262.497</ele>
        <time>2014-04-01T08:38:14Z</time>
      </trkpt>
      <trkpt lat="44.46237" lon="1.27658">
        <ele>263.767</ele>
        <time>2014-04-01T08:38:21Z</time>
      </trkpt>
      <trkpt lat="44.46256" lon="1.2768">
        <ele>264.957</ele>
        <time>2014-04-01T08:38:28Z</time>
      </trkpt>
      <trkpt lat="44.46279" lon="1.27697">
        <ele>264.346</ele>
        <time>2014-04-01T08:38:34Z</time>
      </trkpt>
      <trkpt lat="44.46291" lon="1.27717">
        <ele>261.385</ele>
        <time>2014-04-01T08:38:38Z</time>
      </trkpt>
      <trkpt lat="44.46307" lon="1.27728">
        <ele>257.924</ele>
        <time>2014-04-01T08:38:41Z</time>
      </trkpt>
      <trkpt lat="44.46335" lon="1.27747">
        <ele>253.465</ele>
        <time>2014-04-01T08:38:46Z</time>
      </trkpt>
      <trkpt lat="44.46359" lon="1.27759">
        <ele>249.575</ele>
        <time>2014-04-01T08:38:51Z</time>
      </trkpt>
      <trkpt lat="44.46389" lon="1.27776">
        <ele>248.598</ele>
        <time>2014-04-01T08:38:58Z</time>
      </trkpt>
      <trkpt lat="44.46406" lon="1.27784">
        <ele>248.578</ele>
        <time>2014-04-01T08:39:03Z</time>
      </trkpt>
      <trkpt lat="44.46428" lon="1.27789">
        <ele>250.138</ele>
        <time>2014-04-01T08:39:10Z</time>
      </trkpt>
      <trkpt lat="44.46453" lon="1.27802">
        <ele>253.818</ele>
        <time>2014-04-01T08:39:20Z</time>
      </trkpt>
      <trkpt lat="44.46472" lon="1.27808">
        <ele>255.399</ele>
        <time>2014-04-01T08:39:28Z</time>
      </trkpt>
      <trkpt lat="44.465" lon="1.27812">
        <ele>256.109</ele>
        <time>2014-04-01T08:39:39Z</time>
      </trkpt>
      <trkpt lat="44.46518" lon="1.27812">
        <ele>256.259</ele>
        <time>2014-04-01T08:39:46Z</time>
      </trkpt>
      <trkpt lat="44.46529" lon="1.27822">
        <ele>256.779</ele>
        <time>2014-04-01T08:39:51Z</time>
      </trkpt>
      <trkpt lat="44.46544" lon="1.27837">
        <ele>258.279</ele>
        <time>2014-04-01T08:39:58Z</time>
      </trkpt>
      <trkpt lat="44.46553" lon="1.27839">
        <ele>259.359</ele>
        <time>2014-04-01T08:40:02Z</time>
      </trkpt>
      <trkpt lat="44.46555" lon="1.27839">
        <ele>259.299</ele>
        <time>2014-04-01T08:40:03Z</time>
      </trkpt>
      <trkpt lat="44.46559" lon="1.27837">
        <ele>259.619</ele>
        <time>2014-04-01T08:40:05Z</time>
      </trkpt>
      <trkpt lat="44.4657" lon="1.2784">
        <ele>260.149</ele>
        <time>2014-04-01T08:40:10Z</time>
      </trkpt>
      <trkpt lat="44.46578" lon="1.27844">
        <ele>261.98</ele>
        <time>2014-04-01T08:40:14Z</time>
      </trkpt>
      <trkpt lat="44.46586" lon="1.27841">
        <ele>262.17</ele>
        <time>2014-04-01T08:40:18Z</time>
      </trkpt>
      <trkpt lat="44.46595" lon="1.2784">
        <ele>261.639</ele>
        <time>2014-04-01T08:40:22Z</time>
      </trkpt>
      <trkpt lat="44.46597" lon="1.27837">
        <ele>261.428</ele>
        <time>2014-04-01T08:40:23Z</time>
      </trkpt>
      <trkpt lat="44.46602" lon="1.27827">
        <ele>260.758</ele>
        <time>2014-04-01T08:40:26Z</time>
      </trkpt>
      <trkpt lat="44.46612" lon="1.27827">
        <ele>258.797</ele>
        <time>2014-04-01T08:40:30Z</time>
      </trkpt>
      <trkpt lat="44.46622" lon="1.27824">
        <ele>257.527</ele>
        <time>2014-04-01T08:40:33Z</time>
      </trkpt>
      <trkpt lat="44.46628" lon="1.27811">
        <ele>256.758</ele>
        <time>2014-04-01T08:40:36Z</time>
      </trkpt>
      <trkpt lat="44.46631" lon="1.27809">
        <ele>256.667</ele>
        <time>2014-04-01T08:40:37Z</time>
      </trkpt>
      <trkpt lat="44.4665" lon="1.2779">
        <ele>252.286</ele>
        <time>2014-04-01T08:40:43Z</time>
      </trkpt>
      <trkpt lat="44.46657" lon="1.2779">
        <ele>251.757</ele>
        <time>2014-04-01T08:40:46Z</time>
      </trkpt>
      <trkpt lat="44.46665" lon="1.27781">
        <ele>248.805</ele>
        <time>2014-04-01T08:40:49Z</time>
      </trkpt>
      <trkpt lat="44.46672" lon="1.27777">
        <ele>247.315</ele>
        <time>2014-04-01T08:40:51Z</time>
      </trkpt>
      <trkpt lat="44.46685" lon="1.27781">
        <ele>244.474</ele>
        <time>2014-04-01T08:40:54Z</time>
      </trkpt>
      <trkpt lat="44.46699" lon="1.27763">
        <ele>242.506</ele>
        <time>2014-04-01T08:40:58Z</time>
      </trkpt>
      <trkpt lat="44.46706" lon="1.2775">
        <ele>241.696</ele>
        <time>2014-04-01T08:41:01Z</time>
      </trkpt>
      <trkpt lat="44.46708" lon="1.27734">
        <ele>240.677</ele>
        <time>2014-04-01T08:41:04Z</time>
      </trkpt>
      <trkpt lat="44.46732" lon="1.27709">
        <ele>234.567</ele>
        <time>2014-04-01T08:41:10Z</time>
      </trkpt>
      <trkpt lat="44.46744" lon="1.27707">
        <ele>233.477</ele>
        <time>2014-04-01T08:41:13Z</time>
      </trkpt>
      <trkpt lat="44.46745" lon="1.27691">
        <ele>234.179</ele>
        <time>2014-04-01T08:41:16Z</time>
      </trkpt>
      <trkpt lat="44.46744" lon="1.27686">
        <ele>234.238</ele>
        <time>2014-04-01T08:41:17Z</time>
      </trkpt>
      <trkpt lat="44.46743" lon="1.27676">
        <ele>234.218</ele>
        <time>2014-04-01T08:41:20Z</time>
      </trkpt>
      <trkpt lat="44.4675" lon="1.27668">
        <ele>232.469</ele>
        <time>2014-04-01T08:41:25Z</time>
      </trkpt>
      <trkpt lat="44.46771" lon="1.27648">
        <ele>230.649</ele>
        <time>2014-04-01T08:41:30Z</time>
      </trkpt>
      <trkpt lat="44.46779" lon="1.27638">
        <ele>230.179</ele>
        <time>2014-04-01T08:41:32Z</time>
      </trkpt>
      <trkpt lat="44.46797" lon="1.27627">
        <ele>230.779</ele>
        <time>2014-04-01T08:41:37Z</time>
      </trkpt>
      <trkpt lat="44.46813" lon="1.27624">
        <ele>231.74</ele>
        <time>2014-04-01T08:41:42Z</time>
      </trkpt>
      <trkpt lat="44.4682" lon="1.27613">
        <ele>232</ele>
        <time>2014-04-01T08:41:45Z</time>
      </trkpt>
      <trkpt lat="44.46833" lon="1.27603">
        <ele>232.059</ele>
        <time>2014-04-01T08:41:49Z</time>
      </trkpt>
      <trkpt lat="44.46844" lon="1.27609">
        <ele>231.769</ele>
        <time>2014-04-01T08:41:52Z</time>
      </trkpt>
      <trkpt lat="44.46849" lon="1.27626">
        <ele>231.789</ele>
        <time>2014-04-01T08:41:56Z</time>
      </trkpt>
      <trkpt lat="44.46859" lon="1.27636">
        <ele>230.969</ele>
        <time>2014-04-01T08:41:59Z</time>
      </trkpt>
      <trkpt lat="44.46869" lon="1.27645">
        <ele>230.749</ele>
        <time>2014-04-01T08:42:02Z</time>
      </trkpt>
      <trkpt lat="44.46882" lon="1.27645">
        <ele>231.289</ele>
        <time>2014-04-01T08:42:05Z</time>
      </trkpt>
      <trkpt lat="44.46891" lon="1.27659">
        <ele>228.887</ele>
        <time>2014-04-01T08:42:09Z</time>
      </trkpt>
      <trkpt lat="44.46897" lon="1.27661">
        <ele>228.037</ele>
        <time>2014-04-01T08:42:10Z</time>
      </trkpt>
      <trkpt lat="44.46912" lon="1.27671">
        <ele>225.067</ele>
        <time>2014-04-01T08:42:14Z</time>
      </trkpt>
      <trkpt lat="44.46919" lon="1.27682">
        <ele>223.706</ele>
        <time>2014-04-01T08:42:17Z</time>
      </trkpt>
      <trkpt lat="44.46933" lon="1.27681">
        <ele>222.607</ele>
        <time>2014-04-01T08:42:20Z</time>
      </trkpt>
      <trkpt lat="44.46941" lon="1.27693">
        <ele>221.357</ele>
        <time>2014-04-01T08:42:23Z</time>
      </trkpt>
      <trkpt lat="44.46939" lon="1.27704">
        <ele>219.697</ele>
        <time>2014-04-01T08:42:26Z</time>
      </trkpt>
      <trkpt lat="44.4695" lon="1.27703">
        <ele>219.709</ele>
        <time>2014-04-01T08:42:29Z</time>
      </trkpt>
      <trkpt lat="44.46954" lon="1.277">
        <ele>220.3</ele>
        <time>2014-04-01T08:42:30Z</time>
      </trkpt>
      <trkpt lat="44.46971" lon="1.27693">
        <ele>220.669</ele>
        <time>2014-04-01T08:42:35Z</time>
      </trkpt>
      <trkpt lat="44.46982" lon="1.27694">
        <ele>219.978</ele>
        <time>2014-04-01T08:42:37Z</time>
      </trkpt>
      <trkpt lat="44.47004" lon="1.27719">
        <ele>216.747</ele>
        <time>2014-04-01T08:42:43Z</time>
      </trkpt>
      <trkpt lat="44.47009" lon="1.27734">
        <ele>214.176</ele>
        <time>2014-04-01T08:42:46Z</time>
      </trkpt>
      <trkpt lat="44.4703" lon="1.27742">
        <ele>211.769</ele>
        <time>2014-04-01T08:42:51Z</time>
      </trkpt>
      <trkpt lat="44.47043" lon="1.27741">
        <ele>211.129</ele>
        <time>2014-04-01T08:42:56Z</time>
      </trkpt>
      <trkpt lat="44.47043" lon="1.27741">
        <ele>211.239</ele>
        <time>2014-04-01T08:42:58Z</time>
      </trkpt>
    </trkseg>
  </trk>
</gpx>